Have a Safe July 4th! 

Flight Track Log - Related Links

Times and Time Zones

All times are in EDT time to prevent confusion due to time zone crossing. See the N143DE flight status page for this flight to view local times or setup timezone preferences in your user account.

Time Position Orientation Groundspeed Altitude Reporting Facility
EDT Latitude Longitude Course Direction KTS MPH feet Rate Location/Type
Thu 11:05:21 AM 34.0333 -84.6333 40° Northeast 154 177 3,400  Level Atlanta TRACON
Thu 11:06:15 AM 34.0667 -84.6000 40° Northeast 186 214 4,900 1,526 Climbing Atlanta TRACON
Thu 11:07:15 AM 34.0667 -84.5333 90° East 191 220 6,300 1,000 Climbing Atlanta TRACON
Thu 11:08:21 AM 34.0667 -84.4667 90° East 226 260 7,000 350 Climbing Atlanta TRACON
Thu 11:09:15 AM 34.0667 -84.3833 90° East 243 280 7,000  Level Atlanta TRACON
Thu 11:10:15 AM 34.0667 -84.3000 90° East 243 280 7,000  Level Atlanta TRACON
Thu 11:11:09 AM 34.0667 -84.2333 90° East 248 285 7,000  Level Atlanta TRACON
Thu 11:12:15 AM 34.0500 -84.1500 104° East 243 280 7,000  Level Atlanta TRACON
Thu 11:13:15 AM 34.0333 -84.0667 104° East 246 283 7,000 -50 Level Atlanta TRACON
Thu 11:14:15 AM 34.0000 -83.9833 116° Southeast 246 283 6,900 -50 Descending Atlanta TRACON
Thu 11:15:15 AM 33.9667 -83.9167 121° Southeast 244 281 6,900 235 Level Atlanta TRACON
Thu 11:15:57 AM 33.9547 -83.8736 108° East 260 299 7,300 1,059 Climbing Atlanta Center
Thu 11:16:57 AM 33.9297 -83.8083 115° Southeast 237 273 8,700 1,350 Climbing Atlanta Center
Thu 11:17:57 AM 33.9003 -83.7358 99° East 216 249 10,000 1,150 Climbing Atlanta Center
Thu 11:18:57 AM 33.8958 -83.6608 94° East 216 249 11,000 1,100 Climbing Atlanta Center
Thu 11:19:57 AM 33.8811 -83.5883 104° East 216 249 12,200 1,400 Climbing Atlanta Center
Thu 11:20:57 AM 33.8767 -83.5208 95° East 207 238 13,800 1,500 Climbing Atlanta Center
Thu 11:21:57 AM 33.8700 -83.4583 97° East 202 232 15,200 1,300 Climbing Atlanta Center
Thu 11:22:57 AM 33.8594 -83.3958 101° East 195 224 16,400 1,200 Climbing Atlanta Center
Thu 11:23:57 AM 33.8528 -83.3333 97° East 190 219 17,600 1,050 Climbing Atlanta Center
Thu 11:24:57 AM 33.8461 -83.2708 97° East 190 219 18,500 1,000 Climbing Atlanta Center
Thu 11:25:57 AM 33.8375 -83.2111 100° East 184 212 19,600 1,050 Climbing Atlanta Center
Thu 11:26:57 AM 33.8306 -83.1511 98° East 179 206 20,600 900 Climbing Atlanta Center
Thu 11:27:57 AM 33.8219 -83.0886 99° East 179 206 21,400 800 Climbing Atlanta Center
Thu 11:28:57 AM 33.8150 -83.0261 98° East 184 212 22,200 750 Climbing Atlanta Center
Thu 11:29:57 AM 33.8042 -82.9589 101° East 189 217 22,900 450 Climbing Atlanta Center
Thu 11:30:57 AM 33.7950 -82.8864 99° East 201 231 23,100 50 Climbing Atlanta Center
Thu 11:31:57 AM 33.7861 -82.8092 98° East 213 245 23,000 -50 Descending Atlanta Center
Thu 11:32:57 AM 33.7767 -82.7267 98° East 235 270 23,000  Level Atlanta Center
Thu 11:33:57 AM 33.7675 -82.6419 97° East 246 283 23,000  Level Atlanta Center
Thu 11:34:57 AM 33.7561 -82.5572 99° East 253 291 23,000  Level Atlanta Center
Thu 11:35:57 AM 33.7447 -82.4775 100° East 258 297 23,000  Level Atlanta Center
Thu 11:36:57 AM 33.7353 -82.3925 98° East 265 305 23,000  Level Atlanta Center
Thu 11:37:57 AM 33.7214 -82.3006 100° East 277 319 23,000  Level Atlanta Center
Thu 11:38:57 AM 33.7117 -82.2133 98° East 271 312 23,000  Level Atlanta Center
Thu 11:41:18 AM 33.6603 -82.0142 107° East 259 298 23,000  Level Jacksonville Center
Thu 11:42:18 AM 33.6344 -81.9297 110° East 265 305 23,000  Level Jacksonville Center
Thu 11:43:18 AM 33.6089 -81.8475 110° East 271 312 23,000  Level Jacksonville Center
Thu 11:44:18 AM 33.5808 -81.7633 112° Southeast 271 312 23,000 -450 Level Jacksonville Center
Thu 11:45:18 AM 33.5550 -81.6764 110° East 271 312 22,100 -1,100 Descending Jacksonville Center
Thu 11:46:18 AM 33.5206 -81.5747 112° Southeast 289 333 20,800 -1,140 Descending Jacksonville Center
Thu 11:47:19 AM 33.4739 -81.4906 124° Southeast 295 339 19,800 -950 Descending Jacksonville Center
Thu 11:48:18 AM 33.4311 -81.4067 121° Southeast 295 339 18,900 -958 Descending Jacksonville Center
Thu 11:49:18 AM 33.3864 -81.3203 122° Southeast 295 339 17,900 -1,000 Descending Jacksonville Center
Thu 11:50:18 AM 33.3456 -81.2367 120° Southeast 300 345 16,900 -1,200 Descending Jacksonville Center
Thu 11:51:18 AM 33.3028 -81.1578 123° Southeast 295 339 15,500 -1,300 Descending Jacksonville Center
Thu 11:52:18 AM 33.2619 -81.0767 121° Southeast 290 334 14,300 -1,190 Descending Jacksonville Center
Thu 11:53:19 AM 33.2189 -80.9956 122° Southeast 290 334 13,100 -1,250 Descending Jacksonville Center
Thu 11:54:18 AM 33.1781 -80.9169 122° Southeast 285 328 11,800 -1,050 Descending Jacksonville Center
Thu 11:55:19 AM 33.1394 -80.8386 120° Southeast 285 328 11,000 -1,000 Descending Jacksonville Center
Thu 11:56:18 AM 33.1006 -80.7675 123° Southeast 272 313 9,800 -1,210 Descending Jacksonville Center
Thu 11:57:18 AM 33.0661 -80.6964 120° Southeast 258 297 8,600 -1,140 Descending Jacksonville Center
Thu 11:58:19 AM 33.0272 -80.6306 125° Southeast 253 291 7,500 -1,100 Descending Jacksonville Center
Thu 11:59:18 AM 32.9928 -80.5644 122° Southeast 253 291 6,400 -1,008 Descending Jacksonville Center
Thu 12:00:18 PM 32.9561 -80.5011 125° Southeast 243 280 5,500 -850 Descending Jacksonville Center
Thu 12:01:18 PM 32.9233 -80.4375 122° Southeast 236 272 4,700 -800 Descending Jacksonville Center
Thu 12:02:18 PM 32.8867 -80.3767 126° Southeast 226 260 3,900 -800 Descending Jacksonville Center
Thu 12:03:18 PM 32.8542 -80.3158 122° Southeast 226 260 3,100 -800 Descending Jacksonville Center
Thu 12:05:00 PM 32.7798 -80.1636 125° Southeast  Level Estimated
Thu 12:12:00 PM 32.7000 -80.0000 132° Southeast  Level FlightAware Approximate

Login

Don't have an account? Register now (free) for customized features, flight alerts, and more!